| time (UTC) | temp F | wind direction | speed knots | gust knots | rain 1hr in | rain 24hr in | rain mn in | humidity % | barometer mb |
| 20260506222317 | 87 | 80 | 3.5 | 7.8 | 0.00 | 0.00 | 0.00 | 83 | 1005.3 |
| 20260506221819 | 87 | 95 | 4.3 | 9.6 | 0.00 | 0.00 | 0.00 | 82 | 1005.0 |
| 20260506221317 | 88 | 84 | 2.6 | 7.8 | 0.00 | 0.00 | 0.00 | 82 | 1005.1 |
| 20260506221312 | 87 | 73 | 3.5 | 9.6 | 0.00 | 0.00 | 0.00 | 83 | 1005.2 |
| 20260506220317 | 88 | 130 | 1.7 | 4.3 | 0.00 | 0.00 | 0.00 | 81 | 1005.2 |
| 20260506220312 | 88 | 109 | 1.7 | 4.3 | 0.00 | 0.00 | 0.00 | 82 | 1005.2 |
| 20260506215319 | 88 | 125 | 1.7 | 5.2 | 0.00 | 0.00 | 0.00 | 80 | 1005.2 |
| 20260506215312 | 88 | 82 | 1.7 | 4.3 | 0.00 | 0.00 | 0.00 | 81 | 1005.2 |
| 20260506214813 | 88 | 86 | 1.7 | 4.3 | 0.00 | 0.00 | 0.00 | 80 | 1005.1 |
| 20260506213818 | 88 | 124 | 1.7 | 5.2 | 0.00 | 0.00 | 0.00 | 80 | 1005.2 |
| 20260506213811 | 88 | 119 | 1.7 | 3.5 | 0.00 | 0.00 | 0.00 | 80 | 1005.2 |
| 20260506212812 | 89 | 119 | 0.9 | 2.6 | 0.00 | 0.00 | 0.00 | 80 | 1005.3 |
| 20260506212307 | 89 | 117 | 0.9 | 2.6 | 0.00 | 0.00 | 0.00 | 78 | 1005.3 |
| 20260506211805 | 89 | 116 | 0.0 | 0.0 | 0.00 | 0.00 | 0.00 | 79 | 1005.2 |
| 20260506211759 | 89 | 116 | 0.0 | 2.6 | 0.00 | 0.00 | 0.00 | 78 | 1005.2 |
| 20260506210740 | 89 | 116 | 0.0 | 0.0 | 0.00 | 0.00 | 0.00 | 80 | 1005.3 |
| 20260506210235 | 89 | 116 | 0.0 | 0.9 | 0.00 | 0.00 | 0.00 | 80 | 1005.3 |
| 20260506205732 | 89 | 116 | 0.0 | 0.9 | 0.00 | 0.00 | 0.00 | 79 | 1005.5 |
| 20260506205721 | 89 | 116 | 0.0 | 0.9 | 0.00 | 0.00 | 0.00 | 80 | 1005.6 |
| 20260506204716 | 88 | 116 | 0.0 | 3.5 | 0.00 | 0.00 | 0.00 | 82 | 1005.4 |
| 20260506204218 | 88 | 116 | 0.9 | 5.2 | 0.00 | 0.00 | 0.00 | 82 | 1005.6 |
| 20260506203717 | 88 | 121 | 1.7 | 5.2 | 0.00 | 0.00 | 0.00 | 82 | 1005.4 |
| 20260506203212 | 88 | 131 | 1.7 | 7.0 | 0.00 | 0.00 | 0.00 | 82 | 1005.5 |
| 20260506202713 | 88 | 221 | 1.7 | 7.0 | 0.00 | 0.00 | 0.00 | 82 | 1005.7 |
| 20260506202213 | 87 | 89 | 1.7 | 9.6 | 0.00 | 0.00 | 0.00 | 84 | 1005.7 |
| 20260506201713 | 87 | 144 | 3.5 | 9.6 | 0.00 | 0.00 | 0.00 | 85 | 1005.7 |
| 20260506201212 | 87 | 77 | 2.6 | 7.8 | 0.00 | 0.00 | 0.00 | 84 | 1006.0 |
| 20260506200713 | 87 | 117 | 2.6 | 6.1 | 0.00 | 0.00 | 0.00 | 84 | 1005.9 |
| 20260506200213 | 87 | 160 | 3.5 | 8.7 | 0.00 | 0.00 | 0.00 | 84 | 1005.8 |
| 20260506195714 | 86 | 197 | 3.5 | 8.7 | 0.00 | 0.00 | 0.00 | 84 | 1006.0 |
| 20260506195215 | 86 | 163 | 3.5 | 9.6 | 0.00 | 0.00 | 0.00 | 85 | 1006.3 |
| 20260506194707 | 86 | 153 | 3.5 | 11.3 | 0.00 | 0.00 | 0.00 | 85 | 1006.3 |
| 20260506194203 | 86 | 201 | 2.6 | 11.3 | 0.00 | 0.00 | 0.00 | 85 | 1006.3 |
| 20260506193701 | 85 | 94 | 2.6 | 6.1 | 0.00 | 0.00 | 0.00 | 87 | 1006.7 |
| 20260506193655 | 86 | 113 | 2.6 | 7.8 | 0.00 | 0.00 | 0.00 | 85 | 1006.6 |
| 20260506193155 | 85 | 186 | 2.6 | 7.8 | 0.00 | 0.00 | 0.00 | 86 | 1006.6 |
| 20260506192648 | 85 | 173 | 2.6 | 7.8 | 0.00 | 0.00 | 0.00 | 86 | 1006.7 |
| 20260506192306 | 84 | 123 | 2.6 | 6.1 | 0.00 | 0.00 | 0.00 | 87 | 1006.8 |
| 20260506191147 | 84 | 181 | 1.7 | 5.2 | 0.00 | 0.00 | 0.00 | 87 | 1006.6 |
| 20260506190646 | 84 | 127 | 2.6 | 5.2 | 0.00 | 0.00 | 0.00 | 88 | 1006.8 |
| 20260506190148 | 84 | 167 | 2.6 | 7.8 | 0.00 | 0.00 | 0.00 | 87 | 1006.9 |
| 20260506185648 | 84 | 134 | 2.6 | 7.0 | 0.00 | 0.00 | 0.00 | 88 | 1006.8 |
| 20260506185643 | 84 | 147 | 2.6 | 7.8 | 0.00 | 0.00 | 0.00 | 88 | 1006.9 |
| 20260506184639 | 83 | 167 | 2.6 | 7.0 | 0.00 | 0.00 | 0.00 | 88 | 1006.9 |
| 20260506184137 | 83 | 88 | 1.7 | 7.8 | 0.00 | 0.00 | 0.00 | 88 | 1006.9 |
| 20260506183630 | 83 | 65 | 1.7 | 7.8 | 0.00 | 0.00 | 0.00 | 89 | 1006.9 |
| 20260506183131 | 83 | 182 | 1.7 | 4.3 | 0.00 | 0.00 | 0.00 | 90 | 1007.0 |
| 20260506182629 | 83 | 160 | 1.7 | 5.2 | 0.00 | 0.00 | 0.00 | 89 | 1007.1 |
| 20260506182119 | 82 | 89 | 1.7 | 5.2 | 0.00 | 0.00 | 0.00 | 89 | 1007.2 |
| 20260506181620 | 82 | 123 | 1.7 | 4.3 | 0.00 | 0.00 | 0.00 | 90 | 1007.3 |
| 20260506181117 | 82 | 92 | 1.7 | 4.3 | 0.00 | 0.00 | 0.00 | 90 | 1007.3 |
| 20260506180616 | 82 | 162 | 0.9 | 2.6 | 0.00 | 0.00 | 0.00 | 90 | 1007.4 |
| 20260506180114 | 82 | 169 | 1.7 | 5.2 | 0.00 | 0.00 | 0.00 | 90 | 1007.4 |
| 20260506175614 | 82 | 182 | 1.7 | 5.2 | 0.00 | 0.00 | 0.00 | 90 | 1007.5 |
| 20260506175114 | 82 | 169 | 2.6 | 7.8 | 0.00 | 0.00 | 0.00 | 89 | 1007.5 |
| 20260506174608 | 82 | 205 | 2.6 | 7.8 | 0.00 | 0.00 | 0.00 | 89 | 1007.5 |
| 20260506174109 | 82 | 143 | 1.7 | 5.2 | 0.00 | 0.00 | 0.00 | 90 | 1007.5 |
| 20260506173609 | 82 | 155 | 1.7 | 4.3 | 0.00 | 0.00 | 0.00 | 91 | 1007.6 |
| 20260506173110 | 81 | 168 | 2.6 | 8.7 | 0.00 | 0.00 | 0.00 | 90 | 1007.6 |
| 20260506173106 | 82 | 135 | 1.7 | 4.3 | 0.00 | 0.00 | 0.00 | 92 | 1007.6 |
| 20260506172726 | 81 | 198 | 1.7 | 5.2 | 0.00 | 0.00 | 0.00 | 90 | 1007.6 |
| 20260506172604 | 81 | 141 | 1.7 | 8.7 | 0.00 | 0.00 | 0.00 | 91 | 1007.5 |
| 20260506171602 | 81 | 169 | 1.7 | 5.2 | 0.00 | 0.00 | 0.00 | 90 | 1007.6 |
| 20260506170602 | 81 | 160 | 1.7 | 5.2 | 0.00 | 0.00 | 0.00 | 90 | 1007.5 |
| 20260506170101 | 81 | 164 | 2.6 | 5.2 | 0.00 | 0.00 | 0.00 | 91 | 1007.6 |
| 20260506165600 | 81 | 146 | 1.7 | 5.2 | 0.00 | 0.00 | 0.00 | 91 | 1007.6 |
| 20260506165059 | 81 | 105 | 1.7 | 3.5 | 0.00 | 0.00 | 0.00 | 91 | 1007.6 |
| 20260506164558 | 81 | 77 | 1.7 | 3.5 | 0.00 | 0.00 | 0.00 | 91 | 1007.5 |
| 20260506164059 | 82 | 77 | 1.7 | 4.3 | 0.00 | 0.00 | 0.00 | 90 | 1007.5 |
| 20260506163559 | 82 | 76 | 1.7 | 4.3 | 0.00 | 0.00 | 0.00 | 90 | 1007.5 |
| 20260506163058 | 82 | 134 | 0.9 | 3.5 | 0.00 | 0.00 | 0.00 | 90 | 1007.5 |
| 20260506163053 | 81 | 126 | 1.7 | 3.5 | 0.00 | 0.00 | 0.00 | 91 | 1007.5 |
| 20260506162051 | 81 | 128 | 1.7 | 3.5 | 0.00 | 0.00 | 0.00 | 91 | 1007.4 |
| 20260506161553 | 81 | 131 | 1.7 | 4.3 | 0.00 | 0.00 | 0.00 | 91 | 1007.3 |
| 20260506161055 | 80 | 94 | 1.7 | 5.2 | 0.00 | 0.00 | 0.00 | 91 | 1007.3 |
| 20260506161048 | 80 | 140 | 0.9 | 4.3 | 0.00 | 0.00 | 0.00 | 91 | 1007.2 |
| 20260506160210 | 80 | 117 | 1.7 | 4.3 | 0.00 | 0.00 | 0.00 | 92 | 1006.9 |
| 20260506160049 | 80 | 94 | 1.7 | 5.2 | 0.00 | 0.00 | 0.00 | 91 | 1007.1 |
| 20260506155550 | 80 | 88 | 1.7 | 6.1 | 0.00 | 0.00 | 0.00 | 91 | 1006.9 |
| 20260506155546 | 80 | 88 | 1.7 | 5.2 | 0.00 | 0.00 | 0.00 | 91 | 1006.9 |
| 20260506155203 | 80 | 92 | 1.7 | 6.1 | 0.00 | 0.00 | 0.00 | 91 | 1006.8 |
| 20260506153548 | 80 | 82 | 1.7 | 4.3 | 0.00 | 0.00 | 0.00 | 92 | 1006.9 |
| 20260506153046 | 80 | 88 | 1.7 | 6.1 | 0.00 | 0.00 | 0.00 | 92 | 1006.8 |
| 20260506152547 | 80 | 91 | 1.7 | 6.1 | 0.00 | 0.00 | 0.00 | 92 | 1006.8 |
| 20260506152045 | 80 | 100 | 1.7 | 4.3 | 0.00 | 0.00 | 0.00 | 93 | 1006.8 |
| 20260506151547 | 80 | 95 | 2.6 | 5.2 | 0.00 | 0.00 | 0.00 | 93 | 1006.6 |
| 20260506151047 | 79 | 98 | 2.6 | 5.2 | 0.00 | 0.00 | 0.00 | 94 | 1006.7 |
| 20260506150548 | 79 | 96 | 1.7 | 4.3 | 0.00 | 0.00 | 0.00 | 94 | 1006.5 |
| 20260506150541 | 79 | 97 | 1.7 | 4.3 | 0.00 | 0.00 | 0.00 | 94 | 1006.6 |
| 20260506150044 | 79 | 103 | 1.7 | 4.3 | 0.00 | 0.00 | 0.00 | 94 | 1006.5 |
| 20260506145048 | 78 | 88 | 1.7 | 4.3 | 0.00 | 0.00 | 0.00 | 95 | 1006.4 |
| 20260506145042 | 79 | 98 | 1.7 | 4.3 | 0.00 | 0.00 | 0.00 | 94 | 1006.5 |
| 20260506144039 | 78 | 80 | 1.7 | 4.3 | 0.00 | 0.00 | 0.00 | 95 | 1006.4 |
| 20260506143537 | 78 | 80 | 2.6 | 5.2 | 0.00 | 0.00 | 0.00 | 95 | 1006.3 |
| 20260506143037 | 78 | 101 | 1.7 | 4.3 | 0.00 | 0.00 | 0.00 | 95 | 1006.2 |
| 20260506143030 | 78 | 121 | 1.7 | 5.2 | 0.00 | 0.00 | 0.00 | 95 | 1006.2 |
| 20260506142027 | 78 | 105 | 1.7 | 5.2 | 0.00 | 0.00 | 0.00 | 95 | 1006.2 |
| 20260506141527 | 78 | 76 | 2.6 | 5.2 | 0.00 | 0.00 | 0.00 | 95 | 1006.4 |
| 20260506141027 | 78 | 76 | 1.7 | 4.3 | 0.00 | 0.00 | 0.00 | 95 | 1006.4 |
| 20260506140525 | 78 | 79 | 1.7 | 4.3 | 0.00 | 0.00 | 0.00 | 95 | 1006.1 |
| 20260506140023 | 78 | 84 | 1.7 | 4.3 | 0.00 | 0.00 | 0.00 | 95 | 1006.1 |
| 20260506135516 | 78 | 78 | 1.7 | 3.5 | 0.00 | 0.00 | 0.00 | 95 | 1006.2 |
| 20260506135510 | 78 | 78 | 1.7 | 3.5 | 0.00 | 0.00 | 0.00 | 95 | 1006.2 |
| 20260506134509 | 77 | 78 | 1.7 | 3.5 | 0.00 | 0.00 | 0.00 | 95 | 1006.1 |
| 20260506134008 | 77 | 78 | 1.7 | 3.5 | 0.00 | 0.00 | 0.00 | 95 | 1006.2 |
| 20260506133507 | 77 | 78 | 0.9 | 3.5 | 0.00 | 0.00 | 0.00 | 95 | 1006.4 |
| 20260506133002 | 77 | 78 | 0.9 | 3.5 | 0.00 | 0.00 | 0.00 | 95 | 1006.3 |
| 20260506132503 | 77 | 78 | 1.7 | 3.5 | 0.00 | 0.00 | 0.00 | 95 | 1006.3 |
| 20260506132003 | 77 | 78 | 1.7 | 4.3 | 0.00 | 0.00 | 0.00 | 95 | 1006.3 |
| 20260506131459 | 77 | 78 | 1.7 | 4.3 | 0.00 | 0.00 | 0.00 | 95 | 1006.3 |
| 20260506130959 | 77 | 80 | 0.9 | 4.3 | 0.00 | 0.00 | 0.00 | 95 | 1006.3 |
| 20260506130457 | 77 | 80 | 1.7 | 4.3 | 0.00 | 0.00 | 0.00 | 95 | 1006.3 |
| 20260506130004 | 77 | 82 | 0.9 | 2.6 | 0.00 | 0.00 | 0.00 | 95 | 1006.1 |
| 20260506125957 | 77 | 81 | 0.9 | 2.6 | 0.00 | 0.00 | 0.00 | 95 | 1006.2 |
| 20260506125456 | 77 | 82 | 1.7 | 3.5 | 0.00 | 0.00 | 0.00 | 95 | 1006.1 |
| 20260506124956 | 77 | 81 | 1.7 | 3.5 | 0.00 | 0.00 | 0.00 | 95 | 1006.1 |
| 20260506123954 | 77 | 82 | 1.7 | 5.2 | 0.00 | 0.00 | 0.00 | 95 | 1006.1 |
| 20260506123450 | 77 | 82 | 1.7 | 5.2 | 0.00 | 0.00 | 0.00 | 95 | 1006.1 |
| 20260506122947 | 77 | 201 | 0.9 | 3.5 | 0.00 | 0.00 | 0.00 | 95 | 1006.0 |
| 20260506122450 | 77 | 126 | 0.9 | 3.5 | 0.00 | 0.00 | 0.00 | 95 | 1006.2 |
| 20260506121944 | 77 | 126 | 0.9 | 1.7 | 0.00 | 0.00 | 0.00 | 95 | 1006.2 |
| 20260506121445 | 77 | 126 | 0.9 | 2.6 | 0.00 | 0.00 | 0.00 | 95 | 1006.2 |
| 20260506120942 | 77 | 126 | 0.9 | 2.6 | 0.00 | 0.00 | 0.00 | 95 | 1006.0 |
| 20260506120440 | 77 | 126 | 0.9 | 2.6 | 0.00 | 0.00 | 0.00 | 95 | 1006.0 |
| 20260506115941 | 77 | 126 | 0.9 | 1.7 | 0.00 | 0.00 | 0.00 | 95 | 1006.1 |
| 20260506115441 | 77 | 126 | 0.9 | 2.6 | 0.00 | 0.00 | 0.00 | 95 | 1006.0 |
| 20260506114925 | 77 | 126 | 0.9 | 2.6 | 0.00 | 0.00 | 0.00 | 95 | 1006.0 |
| 20260506114422 | 77 | 126 | 0.9 | 2.6 | 0.00 | 0.00 | 0.00 | 95 | 1005.9 |
| 20260506113924 | 77 | 126 | 0.9 | 2.6 | 0.00 | 0.00 | 0.00 | 95 | 1006.0 |
| 20260506113422 | 77 | 126 | 0.9 | 2.6 | 0.00 | 0.00 | 0.00 | 95 | 1005.8 |
| 20260506112911 | 77 | 126 | 0.9 | 3.5 | 0.00 | 0.00 | 0.00 | 95 | 1005.7 |
| 20260506112408 | 77 | 126 | 0.9 | 3.5 | 0.00 | 0.00 | 0.00 | 95 | 1005.7 |
| 20260506111907 | 77 | 126 | 0.9 | 2.6 | 0.00 | 0.00 | 0.00 | 95 | 1005.6 |
| 20260506111408 | 77 | 126 | 0.9 | 2.6 | 0.00 | 0.00 | 0.00 | 95 | 1005.6 |
| 20260506110904 | 77 | 126 | 0.9 | 4.3 | 0.00 | 0.00 | 0.00 | 95 | 1005.6 |
| 20260506110405 | 77 | 126 | 0.9 | 4.3 | 0.00 | 0.00 | 0.00 | 95 | 1005.6 |
| 20260506105904 | 77 | 129 | 0.9 | 3.5 | 0.00 | 0.00 | 0.00 | 95 | 1005.6 |
| 20260506105403 | 77 | 128 | 0.9 | 4.3 | 0.00 | 0.00 | 0.00 | 95 | 1005.6 |
| 20260506104903 | 77 | 128 | 0.9 | 4.3 | 0.00 | 0.00 | 0.00 | 95 | 1005.6 |
| 20260506104404 | 77 | 129 | 0.9 | 2.6 | 0.00 | 0.00 | 0.00 | 95 | 1005.6 |
| 20260506103904 | 77 | 128 | 0.9 | 3.5 | 0.00 | 0.00 | 0.00 | 95 | 1005.5 |
| 20260506103402 | 77 | 128 | 0.9 | 3.5 | 0.00 | 0.00 | 0.00 | 95 | 1005.5 |
| 20260506102903 | 77 | 128 | 0.9 | 3.5 | 0.00 | 0.00 | 0.00 | 95 | 1005.6 |
| 20260506102403 | 77 | 128 | 0.9 | 3.5 | 0.00 | 0.00 | 0.00 | 94 | 1005.7 |
| 20260506101902 | 77 | 128 | 0.9 | 1.7 | 0.00 | 0.00 | 0.00 | 94 | 1005.7 |
| 20260506101403 | 77 | 128 | 0.9 | 1.7 | 0.00 | 0.00 | 0.00 | 94 | 1005.6 |
| 20260506100901 | 77 | 128 | 0.9 | 2.6 | 0.00 | 0.00 | 0.00 | 94 | 1005.5 |
| 20260506100404 | 77 | 128 | 0.9 | 2.6 | 0.00 | 0.00 | 0.00 | 94 | 1005.5 |
| 20260506100400 | 77 | 128 | 0.9 | 2.6 | 0.00 | 0.00 | 0.00 | 94 | 1005.6 |
| 20260506095401 | 77 | 128 | 0.9 | 2.6 | 0.00 | 0.00 | 0.00 | 94 | 1005.6 |
| 20260506094854 | 77 | 128 | 0.9 | 2.6 | 0.00 | 0.00 | 0.00 | 94 | 1005.6 |
| 20260506094351 | 77 | 128 | 0.9 | 2.6 | 0.00 | 0.00 | 0.00 | 94 | 1005.4 |
| 20260506093845 | 77 | 128 | 0.9 | 3.5 | 0.00 | 0.00 | 0.00 | 94 | 1005.5 |
| 20260506093345 | 77 | 128 | 0.9 | 3.5 | 0.00 | 0.00 | 0.00 | 94 | 1005.5 |
| 20260506093340 | 77 | 128 | 0.9 | 2.6 | 0.00 | 0.00 | 0.00 | 94 | 1005.5 |
| 20260506092338 | 77 | 128 | 0.9 | 2.6 | 0.00 | 0.00 | 0.00 | 94 | 1005.6 |
| 20260506091838 | 77 | 128 | 0.9 | 2.6 | 0.00 | 0.00 | 0.00 | 94 | 1005.6 |
| 20260506091801 | 77 | 128 | 0.9 | 2.6 | 0.00 | 0.00 | 0.00 | 94 | 1005.7 |
| 20260506091405 | 77 | 128 | 0.0 | 2.6 | 0.00 | 0.00 | 0.00 | 94 | 1005.6 |
| 20260506090231 | 77 | 128 | 0.9 | 2.6 | 0.00 | 0.00 | 0.00 | 94 | 1005.6 |
| 20260506085731 | 78 | 128 | 0.9 | 2.6 | 0.00 | 0.00 | 0.00 | 94 | 1005.4 |
| 20260506085211 | 78 | 128 | 0.9 | 2.6 | 0.00 | 0.00 | 0.00 | 93 | 1005.2 |
| 20260506084714 | 78 | 129 | 0.9 | 2.6 | 0.00 | 0.00 | 0.00 | 93 | 1005.6 |
| 20260506084710 | 78 | 129 | 0.9 | 2.6 | 0.00 | 0.00 | 0.00 | 93 | 1005.5 |
| 20260506083709 | 78 | 128 | 0.9 | 3.5 | 0.00 | 0.00 | 0.00 | 93 | 1005.5 |
| 20260506083209 | 78 | 128 | 0.9 | 3.5 | 0.00 | 0.00 | 0.00 | 93 | 1005.4 |
| 20260506082704 | 78 | 126 | 0.9 | 3.5 | 0.00 | 0.00 | 0.00 | 93 | 1005.5 |
| 20260506082200 | 78 | 126 | 0.9 | 4.3 | 0.00 | 0.00 | 0.00 | 93 | 1005.4 |
| 20260506081703 | 78 | 121 | 0.9 | 2.6 | 0.00 | 0.00 | 0.00 | 93 | 1005.5 |
| 20260506081659 | 78 | 121 | 0.9 | 4.3 | 0.00 | 0.00 | 0.00 | 93 | 1005.5 |
| 20260506080657 | 78 | 121 | 0.9 | 2.6 | 0.00 | 0.00 | 0.00 | 92 | 1005.6 |
| 20260506080156 | 78 | 121 | 0.9 | 4.3 | 0.00 | 0.00 | 0.00 | 92 | 1005.7 |
| 20260506073129 | 78 | 115 | 0.9 | 3.5 | 0.00 | 0.00 | 0.00 | 92 | 1005.8 |
| 20260506072621 | 78 | 111 | 0.9 | 3.5 | 0.00 | 0.00 | 0.00 | 92 | 1005.9 |
| 20260506072115 | 78 | 109 | 1.7 | 3.5 | 0.00 | 0.00 | 0.00 | 92 | 1005.9 |
| 20260506071609 | 78 | 152 | 1.7 | 3.5 | 0.00 | 0.00 | 0.00 | 92 | 1006.0 |
| 20260506071107 | 78 | 153 | 1.7 | 4.3 | 0.00 | 0.00 | 0.00 | 92 | 1006.0 |
| 20260506070610 | 78 | 111 | 1.7 | 4.3 | 0.00 | 0.00 | 0.00 | 92 | 1006.2 |
| 20260506070109 | 78 | 107 | 1.7 | 4.3 | 0.00 | 0.00 | 0.00 | 92 | 1006.1 |
| 20260506062053 | 78 | 165 | 1.7 | 4.3 | 0.00 | 0.00 | 0.00 | 92 | 1006.5 |
| 20260506061709 | 78 | 165 | 1.7 | 6.1 | 0.00 | 0.00 | 0.00 | 92 | 1006.7 |
| 20260506061051 | 78 | 165 | 0.9 | 2.6 | 0.00 | 0.00 | 0.00 | 92 | 1006.6 |
| 20260506051024 | 79 | 205 | 2.6 | 9.6 | 0.00 | 0.00 | 0.00 | 91 | 1006.4 |
| 20260506050525 | 79 | 151 | 3.5 | 9.6 | 0.00 | 0.00 | 0.00 | 91 | 1006.3 |
| 20260506045017 | 79 | 178 | 2.6 | 9.6 | 0.00 | 0.00 | 0.00 | 91 | 1006.1 |
| 20260506044517 | 79 | 119 | 2.6 | 9.6 | 0.00 | 0.00 | 0.00 | 91 | 1006.2 |
| 20260506044024 | 79 | 164 | 2.6 | 7.0 | 0.00 | 0.00 | 0.00 | 91 | 1006.1 |
| 20260506044018 | 79 | 163 | 2.6 | 8.7 | 0.00 | 0.00 | 0.00 | 91 | 1006.2 |
| 20260506043013 | 79 | 140 | 1.7 | 5.2 | 0.00 | 0.00 | 0.00 | 91 | 1006.0 |
| 20260506042515 | 79 | 146 | 2.6 | 7.8 | 0.00 | 0.00 | 0.00 | 91 | 1005.9 |
| 20260506042511 | 79 | 173 | 2.6 | 7.8 | 0.00 | 0.00 | 0.00 | 91 | 1005.9 |
| 20260506042129 | 79 | 135 | 1.7 | 6.1 | 0.00 | 0.00 | 0.00 | 91 | 1005.9 |
| 20260506041511 | 79 | 124 | 1.7 | 6.1 | 0.00 | 0.00 | 0.00 | 91 | 1005.8 |
| 20260506041005 | 79 | 142 | 1.7 | 4.3 | 0.00 | 0.00 | 0.00 | 91 | 1006.0 |
| 20260506040002 | 79 | 156 | 2.6 | 6.1 | 0.00 | 0.00 | 0.00 | 91 | 1005.8 |
| 20260506035504 | 79 | 184 | 2.6 | 7.8 | 0.00 | 0.00 | 0.00 | 91 | 1005.8 |
| 20260506035003 | 79 | 142 | 2.6 | 7.8 | 0.00 | 0.00 | 0.00 | 91 | 1005.9 |
| 20260506034503 | 79 | 179 | 2.6 | 7.0 | 0.00 | 0.00 | 0.00 | 91 | 1005.7 |
| 20260506034003 | 79 | 158 | 2.6 | 6.1 | 0.00 | 0.00 | 0.00 | 91 | 1005.6 |
| 20260506033458 | 79 | 140 | 2.6 | 6.1 | 0.00 | 0.00 | 0.00 | 91 | 1005.7 |
| 20260506032958 | 79 | 147 | 2.6 | 6.1 | 0.00 | 0.00 | 0.00 | 91 | 1005.7 |
| 20260506032501 | 79 | 150 | 2.6 | 7.8 | 0.00 | 0.00 | 0.00 | 91 | 1005.6 |
| 20260506032000 | 79 | 158 | 2.6 | 7.8 | 0.00 | 0.00 | 0.00 | 91 | 1005.6 |
| 20260506031458 | 79 | 166 | 2.6 | 6.1 | 0.00 | 0.00 | 0.00 | 91 | 1005.7 |
| 20260506030959 | 79 | 136 | 2.6 | 7.8 | 0.00 | 0.00 | 0.00 | 91 | 1005.7 |
| 20260506030446 | 79 | 147 | 2.6 | 8.7 | 0.00 | 0.00 | 0.00 | 91 | 1005.6 |
| 20260506025947 | 79 | 171 | 2.6 | 8.7 | 0.00 | 0.00 | 0.00 | 91 | 1005.6 |
| 20260506025444 | 79 | 151 | 2.6 | 6.1 | 0.00 | 0.00 | 0.00 | 91 | 1005.6 |
| 20260506024943 | 79 | 140 | 2.6 | 6.1 | 0.00 | 0.00 | 0.00 | 91 | 1005.4 |
| 20260506024439 | 79 | 126 | 2.6 | 7.0 | 0.00 | 0.00 | 0.00 | 91 | 1005.2 |
| 20260506023944 | 79 | 168 | 2.6 | 8.7 | 0.00 | 0.00 | 0.00 | 91 | 1005.2 |
| 20260506023939 | 79 | 81 | 2.6 | 7.0 | 0.00 | 0.00 | 0.00 | 91 | 1005.3 |
| 20260506022936 | 79 | 172 | 2.6 | 8.7 | 0.00 | 0.00 | 0.00 | 91 | 1005.0 |
| 20260506022441 | 79 | 169 | 2.6 | 10.4 | 0.00 | 0.00 | 0.00 | 90 | 1004.9 |
| 20260506022437 | 79 | 169 | 1.7 | 10.4 | 0.00 | 0.00 | 0.00 | 90 | 1005.0 |
| 20260506021436 | 79 | 136 | 1.7 | 5.2 | 0.00 | 0.00 | 0.00 | 90 | 1004.9 |
| 20260506021430 | 79 | 177 | 1.7 | 7.8 | 0.00 | 0.00 | 0.00 | 90 | 1004.9 |
| 20260506021044 | 79 | 119 | 2.6 | 7.8 | 0.00 | 0.00 | 0.00 | 90 | 1004.9 |
| 20260506015929 | 79 | 161 | 2.6 | 9.6 | 0.00 | 0.00 | 0.00 | 90 | 1004.7 |
| 20260506015429 | 79 | 171 | 2.6 | 9.6 | 0.00 | 0.00 | 0.00 | 90 | 1004.8 |
| 20260506014928 | 79 | 134 | 2.6 | 7.8 | 0.00 | 0.00 | 0.00 | 90 | 1004.6 |
| 20260506014429 | 79 | 161 | 3.5 | 9.6 | 0.00 | 0.00 | 0.00 | 90 | 1004.6 |
| 20260506013922 | 79 | 161 | 3.5 | 9.6 | 0.00 | 0.00 | 0.00 | 89 | 1004.5 |
| 20260506013428 | 79 | 173 | 4.3 | 10.4 | 0.00 | 0.00 | 0.00 | 89 | 1004.5 |
| 20260506013423 | 79 | 202 | 3.5 | 9.6 | 0.00 | 0.00 | 0.00 | 89 | 1004.5 |
| 20260506013042 | 80 | 116 | 3.5 | 9.6 | 0.00 | 0.00 | 0.00 | 89 | 1004.4 |
| 20260506012423 | 79 | 182 | 4.3 | 10.4 | 0.00 | 0.00 | 0.00 | 89 | 1004.5 |
| 20260506011425 | 80 | 169 | 3.5 | 11.3 | 0.00 | 0.00 | 0.00 | 89 | 1004.3 |
| 20260506011418 | 80 | 182 | 4.3 | 11.3 | 0.00 | 0.00 | 0.00 | 89 | 1004.4 |
| 20260506010418 | 80 | 151 | 2.6 | 7.8 | 0.00 | 0.00 | 0.00 | 89 | 1004.2 |
| 20260506005924 | 80 | 123 | 2.6 | 7.8 | 0.00 | 0.00 | 0.00 | 89 | 1004.1 |
| 20260506005919 | 80 | 167 | 2.6 | 6.1 | 0.00 | 0.00 | 0.00 | 89 | 1004.2 |
| 20260506004912 | 80 | 174 | 3.5 | 8.7 | 0.00 | 0.00 | 0.00 | 88 | 1004.2 |
| 20260506004419 | 80 | 202 | 3.5 | 9.6 | 0.00 | 0.00 | 0.00 | 88 | 1003.9 |
| 20260506004413 | 80 | 175 | 2.6 | 8.7 | 0.00 | 0.00 | 0.00 | 88 | 1004.1 |
| 20260506004028 | 80 | 155 | 2.6 | 8.7 | 0.00 | 0.00 | 0.00 | 88 | 1003.8 |
| 20260506003906 | 80 | 171 | 3.5 | 9.6 | 0.00 | 0.00 | 0.00 | 88 | 1003.8 |
| 20260506002406 | 81 | 134 | 3.5 | 8.7 | 0.00 | 0.00 | 0.00 | 87 | 1003.9 |
| 20260506001901 | 81 | 78 | 3.5 | 11.3 | 0.00 | 0.00 | 0.00 | 87 | 1003.9 |
| 20260506001401 | 81 | 159 | 2.6 | 11.3 | 0.00 | 0.00 | 0.00 | 87 | 1003.8 |
| 20260506000902 | 81 | 168 | 2.6 | 7.8 | 0.00 | 0.00 | 0.00 | 87 | 1003.8 |
| 20260506000402 | 81 | 123 | 3.5 | 12.2 | 0.00 | 0.00 | 0.00 | 87 | 1003.7 |
| 20260505235906 | 81 | 119 | 4.3 | 11.3 | 0.00 | 0.00 | 0.00 | 87 | 1003.7 |
| 20260505235902 | 81 | 123 | 4.3 | 12.2 | 0.00 | 0.00 | 0.00 | 87 | 1003.6 |
| 20260505234859 | 81 | 143 | 4.3 | 11.3 | 0.00 | 0.00 | 0.00 | 87 | 1003.7 |
| 20260505234401 | 81 | 171 | 4.3 | 10.4 | 0.00 | 0.00 | 0.00 | 87 | 1003.7 |
| 20260505233902 | 81 | 53 | 4.3 | 12.2 | 0.00 | 0.00 | 0.00 | 87 | 1003.6 |
| 20260505233400 | 81 | 130 | 4.3 | 12.2 | 0.00 | 0.00 | 0.00 | 86 | 1003.7 |
| 20260505232859 | 82 | 108 | 3.5 | 11.3 | 0.00 | 0.00 | 0.00 | 86 | 1003.8 |
| 20260505232400 | 82 | 180 | 2.6 | 8.7 | 0.00 | 0.00 | 0.00 | 86 | 1003.8 |
| 20260505232355 | 82 | 163 | 2.6 | 7.0 | 0.00 | 0.00 | 0.00 | 86 | 1003.8 |
| 20260505231355 | 82 | 161 | 3.5 | 8.7 | 0.00 | 0.00 | 0.00 | 87 | 1003.7 |
| 20260505230853 | 81 | 167 | 3.5 | 8.7 | 0.00 | 0.00 | 0.00 | 87 | 1003.8 |
| 20260505230355 | 82 | 157 | 2.6 | 7.8 | 0.00 | 0.00 | 0.00 | 86 | 1003.8 |
| 20260505225855 | 81 | 162 | 3.5 | 11.3 | 0.00 | 0.00 | 0.00 | 86 | 1003.7 |
| 20260505225850 | 81 | 179 | 3.5 | 8.7 | 0.00 | 0.00 | 0.00 | 87 | 1003.9 |
| 20260505224851 | 81 | 93 | 3.5 | 11.3 | 0.00 | 0.00 | 0.00 | 86 | 1004.0 |
| 20260505224349 | 82 | 153 | 3.5 | 10.4 | 0.00 | 0.00 | 0.00 | 86 | 1004.1 |
| 20260505223851 | 82 | 197 | 3.5 | 10.4 | 0.00 | 0.00 | 0.00 | 86 | 1004.2 |
| 20260505223351 | 82 | 153 | 3.5 | 8.7 | 0.00 | 0.00 | 0.00 | 86 | 1004.3 |
| 20260505222849 | 82 | 158 | 3.5 | 8.7 | 0.00 | 0.00 | 0.00 | 86 | 1004.2 |